createdAt,value
2016-12-26T00:00:58.996Z,0
2016-12-26T00:01:58.983Z,0
2016-12-26T00:02:58.970Z,0
2016-12-26T00:03:58.957Z,0
2016-12-26T00:04:58.943Z,0
2016-12-26T00:05:58.931Z,0
2016-12-26T00:06:58.918Z,0
2016-12-26T00:07:58.907Z,0
2016-12-26T00:08:58.896Z,0
2016-12-26T00:09:58.883Z,0
2016-12-26T00:10:58.873Z,0
2016-12-26T00:11:58.881Z,0
2016-12-26T00:12:58.842Z,0
2016-12-26T00:13:58.828Z,0
2016-12-26T00:14:58.813Z,0
2016-12-26T00:15:58.803Z,0
2016-12-26T00:16:58.789Z,0
2016-12-26T00:17:58.786Z,0
2016-12-26T00:18:58.779Z,0
2016-12-26T00:19:58.769Z,0
2016-12-26T00:20:58.741Z,0
2016-12-26T00:21:58.726Z,0
2016-12-26T00:22:58.712Z,0
2016-12-26T00:23:59.027Z,0
2016-12-26T00:24:58.688Z,0
2016-12-26T00:25:58.674Z,0
2016-12-26T00:26:58.661Z,0
2016-12-26T00:27:58.651Z,0
2016-12-26T00:28:58.633Z,0
2016-12-26T00:29:58.622Z,0
2016-12-26T00:30:58.611Z,0
2016-12-26T00:31:58.597Z,0
2016-12-26T00:32:58.583Z,0
2016-12-26T00:33:58.572Z,0
2016-12-26T00:34:58.561Z,0
2016-12-26T00:35:58.544Z,0
2016-12-26T00:36:58.537Z,0
2016-12-26T00:37:58.520Z,0
2016-12-26T00:38:58.507Z,0
2016-12-26T00:39:58.493Z,0
2016-12-26T00:40:58.486Z,0
2016-12-26T00:41:58.468Z,0
2016-12-26T00:42:58.455Z,0
2016-12-26T00:43:58.442Z,0
2016-12-26T00:44:58.427Z,0
2016-12-26T00:45:58.415Z,0
2016-12-26T00:46:58.405Z,0
2016-12-26T00:47:58.389Z,0
2016-12-26T00:48:58.377Z,0
2016-12-26T00:49:58.364Z,0
2016-12-26T00:50:58.350Z,0
2016-12-26T00:51:58.339Z,0
2016-12-26T00:52:58.327Z,0
2016-12-26T00:53:58.313Z,0
2016-12-26T00:54:58.302Z,0
2016-12-26T00:55:58.287Z,0
2016-12-26T00:56:58.273Z,0
2016-12-26T00:57:58.261Z,0
2016-12-26T00:58:58.248Z,0
2016-12-26T00:59:58.236Z,0
2016-12-26T01:00:58.223Z,0
2016-12-26T01:01:58.212Z,0
2016-12-26T01:02:58.198Z,0
2016-12-26T01:03:58.183Z,0
2016-12-26T01:04:58.171Z,0
2016-12-26T01:05:58.159Z,0
2016-12-26T01:06:58.145Z,0
2016-12-26T01:07:58.133Z,0
2016-12-26T01:08:58.119Z,0
2016-12-26T01:09:58.106Z,0
2016-12-26T01:10:58.095Z,0
2016-12-26T01:11:58.083Z,0
2016-12-26T01:12:58.071Z,0
2016-12-26T01:13:58.057Z,0
2016-12-26T01:14:58.041Z,0
2016-12-26T01:15:58.031Z,0
2016-12-26T01:16:58.018Z,0
2016-12-26T01:17:58.003Z,0
2016-12-26T01:18:57.991Z,0
2016-12-26T01:19:57.979Z,0
2016-12-26T01:20:57.965Z,0
2016-12-26T01:21:57.952Z,0
2016-12-26T01:22:57.940Z,0
2016-12-26T01:23:57.926Z,0
2016-12-26T01:24:57.914Z,0
2016-12-26T01:25:57.902Z,0
2016-12-26T01:26:57.889Z,0
2016-12-26T01:27:57.873Z,0
2016-12-26T01:28:57.864Z,0
2016-12-26T01:29:57.849Z,0
2016-12-26T01:30:57.835Z,0
2016-12-26T01:31:57.823Z,0
2016-12-26T01:32:57.810Z,0
2016-12-26T01:33:57.798Z,0
2016-12-26T01:34:57.785Z,0
2016-12-26T01:35:57.771Z,0
2016-12-26T01:36:57.760Z,0
2016-12-26T01:37:57.746Z,0
2016-12-26T01:38:57.732Z,0
2016-12-26T01:39:57.720Z,0
2016-12-26T01:40:57.708Z,0
2016-12-26T01:41:57.696Z,0
2016-12-26T01:42:57.683Z,0
2016-12-26T01:43:57.669Z,0
2016-12-26T01:44:57.657Z,0
2016-12-26T01:45:57.645Z,0
2016-12-26T01:46:57.631Z,0
2016-12-26T01:47:57.623Z,0
2016-12-26T01:48:57.604Z,0
2016-12-26T01:49:57.591Z,0
2016-12-26T01:50:57.578Z,0
2016-12-26T01:51:57.570Z,0
2016-12-26T01:52:57.552Z,0
2016-12-26T01:53:57.541Z,0
2016-12-26T01:54:57.527Z,0
2016-12-26T01:55:57.515Z,0
2016-12-26T01:56:57.503Z,0
2016-12-26T01:57:57.488Z,0
2016-12-26T01:58:57.478Z,0
2016-12-26T01:59:57.465Z,0
2016-12-26T02:00:57.451Z,0
2016-12-26T02:01:57.438Z,0
2016-12-26T02:02:57.427Z,0
2016-12-26T02:03:57.413Z,0
2016-12-26T02:04:57.400Z,0
2016-12-26T02:05:57.387Z,0
2016-12-26T02:06:57.373Z,0
2016-12-26T02:07:57.362Z,0
2016-12-26T02:08:57.347Z,0
2016-12-26T02:09:57.341Z,0
2016-12-26T02:10:57.323Z,0
2016-12-26T02:11:57.310Z,0
2016-12-26T02:12:57.298Z,0
2016-12-26T02:13:57.284Z,0
2016-12-26T02:14:57.271Z,0
2016-12-26T02:15:57.264Z,0
2016-12-26T02:16:57.245Z,0
2016-12-26T02:17:57.232Z,0
2016-12-26T02:18:57.220Z,0
2016-12-26T02:19:57.206Z,0
2016-12-26T02:20:57.194Z,0
2016-12-26T02:21:57.181Z,0
2016-12-26T02:22:57.167Z,0
2016-12-26T02:23:57.155Z,0
2016-12-26T02:24:57.142Z,0
2016-12-26T02:25:57.132Z,1.51
2016-12-26T02:26:57.116Z,1.7
2016-12-26T02:27:57.102Z,1.61
2016-12-26T02:28:57.089Z,1.42
2016-12-26T02:29:57.080Z,1.14
2016-12-26T02:30:57.066Z,0.57
2016-12-26T02:31:57.053Z,0.09
2016-12-26T02:32:57.037Z,0.38
2016-12-26T02:33:58.505Z,0.66
2016-12-26T02:34:57.012Z,1.42
2016-12-26T02:35:57.000Z,1.32
2016-12-26T02:36:56.994Z,3.7
2016-12-26T02:37:56.972Z,3.7
2016-12-26T02:38:56.960Z,4.46
2016-12-26T02:39:56.948Z,3.5
2016-12-26T02:40:56.934Z,3.22
2016-12-26T02:41:56.920Z,3.03
2016-12-26T02:42:56.917Z,2.08
2016-12-26T02:43:56.895Z,1.99
2016-12-26T02:44:56.883Z,2.37
2016-12-26T02:45:56.868Z,2.75
2016-12-26T02:46:56.859Z,2.75
2016-12-26T02:47:56.844Z,2.18
2016-12-26T02:48:56.831Z,2.18
2016-12-26T02:49:56.817Z,2.66
2016-12-26T02:50:56.804Z,3.13
2016-12-26T02:51:56.789Z,3.13
2016-12-26T02:52:56.781Z,3.31
2016-12-26T02:53:56.764Z,5.02
2016-12-26T02:54:56.752Z,4.83
2016-12-26T02:55:56.739Z,5.02
2016-12-26T02:56:56.724Z,8.25
2016-12-26T02:57:56.715Z,6.82
2016-12-26T02:58:56.704Z,6.45
2016-12-26T02:59:56.687Z,5.59
2016-12-26T03:00:56.675Z,5.12
2016-12-26T03:01:56.664Z,4.93
2016-12-26T03:02:56.649Z,6.16
2016-12-26T03:03:56.637Z,6.73
2016-12-26T03:04:56.622Z,7.4
2016-12-26T03:05:56.611Z,8.34
2016-12-26T03:06:56.599Z,9.29
2016-12-26T03:07:56.584Z,11.57
2016-12-26T03:08:56.574Z,10.43
2016-12-26T03:09:56.559Z,10.24
2016-12-26T03:10:56.545Z,9.58
2016-12-26T03:11:56.534Z,8.72
2016-12-26T03:12:56.519Z,8.72
2016-12-26T03:13:56.507Z,8.34
2016-12-26T03:14:56.496Z,8.15
2016-12-26T03:15:56.483Z,8.91
2016-12-26T03:16:56.471Z,9.77
2016-12-26T03:17:56.456Z,9.58
2016-12-26T03:18:56.442Z,9.58
2016-12-26T03:19:56.432Z,9.1
2016-12-26T03:20:56.419Z,9.39
2016-12-26T03:21:56.924Z,8.91
2016-12-26T03:22:56.395Z,7.87
2016-12-26T03:23:56.825Z,7.59
2016-12-26T03:24:56.367Z,7.3
2016-12-26T03:25:56.354Z,6.54
2016-12-26T03:26:56.848Z,6.45
2016-12-26T03:27:56.329Z,6.16
2016-12-26T03:28:56.317Z,7.01
2016-12-26T03:29:56.660Z,6.73
2016-12-26T03:30:56.291Z,6.63
2016-12-26T03:31:56.278Z,7.97
2016-12-26T03:32:56.267Z,7.2
2016-12-26T03:33:56.277Z,6.63
2016-12-26T03:34:56.239Z,6.54
2016-12-26T03:35:56.246Z,6.73
2016-12-26T03:36:56.698Z,7.49
2016-12-26T03:37:56.199Z,6.54
2016-12-26T03:38:56.189Z,6.54
2016-12-26T03:39:56.372Z,6.82
2016-12-26T03:40:56.161Z,6.35
2016-12-26T03:41:56.150Z,7.4
2016-12-26T03:42:56.504Z,8.06
2016-12-26T03:43:56.122Z,8.82
2016-12-26T03:44:56.111Z,9.39
2016-12-26T03:45:56.096Z,8.91
2016-12-26T03:46:56.086Z,8.53
2016-12-26T03:47:56.503Z,8.91
2016-12-26T03:48:56.059Z,10.05
2016-12-26T03:49:56.048Z,10.24
2016-12-26T03:50:56.438Z,9.48
2016-12-26T03:51:56.023Z,8.72
2016-12-26T03:52:56.009Z,9.58
2016-12-26T03:53:56.404Z,10.24
2016-12-26T03:54:55.986Z,9.86
2016-12-26T03:55:55.976Z,8.91
2016-12-26T03:56:56.331Z,8.72
2016-12-26T03:57:55.946Z,9.29
2016-12-26T03:58:55.932Z,9.58
2016-12-26T03:59:56.383Z,10.33
2016-12-26T04:00:55.908Z,10.05
2016-12-26T04:01:55.894Z,9.2
2016-12-26T04:02:55.884Z,9.01
2016-12-26T04:03:55.872Z,9.39
2016-12-26T04:04:55.862Z,9.29
2016-12-26T04:05:55.846Z,9.01
2016-12-26T04:06:56.307Z,7.78
2016-12-26T04:07:55.817Z,7.87
2016-12-26T04:08:55.804Z,7.68
2016-12-26T04:09:56.198Z,7.87
2016-12-26T04:10:55.779Z,7.78
2016-12-26T04:11:55.770Z,7.97
2016-12-26T04:12:55.934Z,9.01
2016-12-26T04:13:55.741Z,10.62
2016-12-26T04:14:55.730Z,9.77
2016-12-26T04:15:55.723Z,9.39
2016-12-26T04:16:55.703Z,8.25
2016-12-26T04:17:55.689Z,7.97
2016-12-26T04:18:55.677Z,8.15
2016-12-26T04:19:55.665Z,7.78
2016-12-26T04:20:55.651Z,7.68
2016-12-26T04:21:55.640Z,7.49
2016-12-26T04:22:55.629Z,7.2
2016-12-26T04:23:55.610Z,9.58
2016-12-26T04:24:55.608Z,9.01
2016-12-26T04:25:56.050Z,8.91
2016-12-26T04:26:55.577Z,8.53
2016-12-26T04:27:55.560Z,7.87
2016-12-26T04:28:55.920Z,7.59
2016-12-26T04:29:55.540Z,7.59
2016-12-26T04:30:55.526Z,8.72
2016-12-26T04:31:55.938Z,9.2
2016-12-26T04:32:55.499Z,8.72
2016-12-26T04:33:55.809Z,10.14
2016-12-26T04:34:55.552Z,10.52
2016-12-26T04:35:55.571Z,10.05
2016-12-26T04:36:55.850Z,10.52
2016-12-26T04:37:55.438Z,12.33
2016-12-26T04:38:55.424Z,11.76
2016-12-26T04:39:55.864Z,11.19
2016-12-26T04:40:55.399Z,10.62
2016-12-26T04:41:55.387Z,9.86
2016-12-26T04:42:55.818Z,10.62
2016-12-26T04:43:55.359Z,10.71
2016-12-26T04:44:55.350Z,11.57
2016-12-26T04:45:55.776Z,11.38
2016-12-26T04:46:55.324Z,11
2016-12-26T04:47:55.737Z,12.9
2016-12-26T04:48:55.295Z,13.18
2016-12-26T04:49:55.285Z,12.99
2016-12-26T04:50:55.400Z,12.9
2016-12-26T04:51:55.259Z,13.56
2016-12-26T04:52:55.249Z,12.9
2016-12-26T04:53:55.643Z,12.42
2016-12-26T04:54:55.222Z,13.09
2016-12-26T04:55:55.209Z,14.42
2016-12-26T04:56:55.648Z,13.38
2016-12-26T04:57:55.240Z,14.41
2016-12-26T04:58:55.171Z,13.57
2016-12-26T04:59:55.593Z,12.52
2016-12-26T05:00:55.146Z,14.51
2016-12-26T05:01:55.134Z,13.46
2016-12-26T05:02:55.694Z,13.47
2016-12-26T05:03:55.108Z,13.19
2016-12-26T05:04:55.094Z,12.71
2016-12-26T05:05:55.220Z,12.42
2016-12-26T05:06:55.075Z,12.33
2016-12-26T05:07:55.058Z,12.14
2016-12-26T05:08:55.167Z,12.33
2016-12-26T05:09:55.032Z,13.18
2016-12-26T05:10:55.019Z,12.99
2016-12-26T05:11:55.161Z,12.61
2016-12-26T05:12:54.991Z,15.08
2016-12-26T05:13:54.977Z,13.94
2016-12-26T05:14:54.970Z,14.22
2016-12-26T05:15:54.956Z,13.46
2016-12-26T05:16:55.392Z,14.13
2016-12-26T05:17:54.931Z,13.46
2016-12-26T05:18:54.919Z,12.99
2016-12-26T05:19:55.313Z,13.84
2016-12-26T05:20:54.893Z,13.28
2016-12-26T05:21:54.881Z,13.46
2016-12-26T05:22:54.867Z,13.28
2016-12-26T05:23:54.856Z,12.8
2016-12-26T05:24:55.082Z,14.98
2016-12-26T05:25:54.828Z,14.32
2016-12-26T05:26:54.952Z,13.37
2016-12-26T05:27:54.801Z,13.56
2016-12-26T05:28:54.792Z,13.09
2016-12-26T05:29:54.922Z,12.62
2016-12-26T05:30:54.765Z,14.41
2016-12-26T05:31:54.752Z,14.14
2016-12-26T05:32:55.018Z,13.56
2016-12-26T05:33:54.727Z,13.47
2016-12-26T05:34:54.713Z,14.13
2016-12-26T05:35:54.702Z,15.55
2016-12-26T05:36:54.689Z,15.26
2016-12-26T05:37:54.952Z,15.84
2016-12-26T05:38:54.663Z,15.17
2016-12-26T05:39:54.650Z,14.42
2016-12-26T05:40:54.635Z,14.98
2016-12-26T05:41:54.625Z,14.03
2016-12-26T05:42:54.613Z,13.18
2016-12-26T05:43:54.598Z,12.33
2016-12-26T05:44:54.584Z,11.57
2016-12-26T05:45:54.572Z,11.19
2016-12-26T05:46:54.561Z,11.29
2016-12-26T05:47:54.548Z,11.38
2016-12-26T05:48:54.537Z,13.18
2016-12-26T05:49:54.524Z,13.56
2016-12-26T05:50:54.514Z,14.79
2016-12-26T05:51:54.498Z,14.23
2016-12-26T05:52:54.485Z,14.14
2016-12-26T05:53:54.474Z,12.8
2016-12-26T05:54:54.468Z,12.71
2016-12-26T05:55:54.448Z,12.52
2016-12-26T05:56:54.431Z,12.23
2016-12-26T05:57:54.423Z,11.38
2016-12-26T05:58:54.406Z,12.04
2016-12-26T05:59:54.395Z,12.04
2016-12-26T06:00:54.384Z,11.94
2016-12-26T06:01:54.372Z,11.19
2016-12-26T06:02:54.354Z,12.04
2016-12-26T06:03:54.345Z,12.14
2016-12-26T06:04:54.658Z,11.85
2016-12-26T06:05:54.316Z,12.05
2016-12-26T06:06:54.310Z,11.76
2016-12-26T06:07:54.518Z,11.47
2016-12-26T06:08:54.281Z,11.67
2016-12-26T06:09:54.271Z,11.57
2016-12-26T06:10:54.390Z,11.57
2016-12-26T06:11:54.242Z,12.81
2016-12-26T06:12:54.260Z,14.04
2016-12-26T06:13:54.216Z,14.51
2016-12-26T06:14:54.206Z,14.23
2016-12-26T06:15:54.191Z,13.75
2016-12-26T06:16:54.179Z,15.26
2016-12-26T06:17:54.164Z,15.17
2016-12-26T06:18:54.152Z,14.98
2016-12-26T06:19:54.138Z,14.03
2016-12-26T06:20:54.128Z,13.46
2016-12-26T06:21:54.115Z,13.75
2016-12-26T06:22:54.105Z,13.37
2016-12-26T06:23:54.091Z,14.98
2016-12-26T06:24:54.080Z,15.08
2016-12-26T06:25:54.064Z,14.79
2016-12-26T06:26:54.053Z,14.03
2016-12-26T06:27:54.040Z,14.7
2016-12-26T06:28:54.025Z,14.51
2016-12-26T06:29:54.017Z,13.84
2016-12-26T06:30:54.005Z,14.79
2016-12-26T06:31:53.986Z,14.79
2016-12-26T06:32:53.974Z,14.61
2016-12-26T06:33:53.968Z,14.41
2016-12-26T06:34:53.949Z,14.7
2016-12-26T06:35:53.937Z,14.22
2016-12-26T06:36:53.923Z,14.32
2016-12-26T06:37:53.910Z,15.36
2016-12-26T06:38:53.898Z,14.22
2016-12-26T06:39:53.886Z,13.94
2016-12-26T06:40:53.878Z,14.98
2016-12-26T06:41:53.861Z,14.79
2016-12-26T06:42:53.843Z,14.32
2016-12-26T06:43:53.833Z,15.36
2016-12-26T06:44:53.823Z,14.79
2016-12-26T06:45:53.807Z,13.84
2016-12-26T06:46:53.794Z,15.17
2016-12-26T06:47:53.783Z,14.89
2016-12-26T06:48:53.767Z,15.36
2016-12-26T06:49:53.759Z,16.5
2016-12-26T06:50:53.745Z,16.6
2016-12-26T06:51:53.743Z,17.45
2016-12-26T06:52:53.718Z,16.78
2016-12-26T06:53:53.704Z,17.07
2016-12-26T06:54:53.695Z,18.02
2016-12-26T06:55:53.680Z,18.4
2016-12-26T06:56:53.665Z,17.45
2016-12-26T06:57:53.654Z,16.97
2016-12-26T06:58:53.640Z,16.78
2016-12-26T06:59:53.630Z,18.49
2016-12-26T07:00:53.617Z,18.77
2016-12-26T07:01:53.602Z,18.49
2016-12-26T07:02:53.589Z,18.4
2016-12-26T07:03:53.578Z,17.07
2016-12-26T07:04:53.564Z,17.35
2016-12-26T07:05:53.556Z,17.35
2016-12-26T07:06:53.539Z,17.64
2016-12-26T07:07:53.530Z,17.83
2016-12-26T07:08:53.512Z,18.3
2016-12-26T07:09:53.501Z,19.34
2016-12-26T07:10:53.490Z,19.25
2016-12-26T07:11:53.475Z,19.15
2016-12-26T07:12:53.460Z,20.1
2016-12-26T07:13:53.452Z,20.96
2016-12-26T07:14:53.436Z,20.29
2016-12-26T07:15:53.428Z,19.82
2016-12-26T07:16:53.414Z,20.1
2016-12-26T07:17:53.398Z,20.67
2016-12-26T07:18:53.386Z,20.2
2016-12-26T07:19:53.372Z,20.1
2016-12-26T07:20:53.362Z,20.01
2016-12-26T07:21:53.345Z,20.01
2016-12-26T07:22:53.335Z,19.54
2016-12-26T07:23:53.320Z,21.05
2016-12-26T07:24:53.311Z,21.15
2016-12-26T07:25:53.298Z,19.63
2016-12-26T07:26:53.321Z,19.82
2016-12-26T07:27:53.272Z,20.48
2016-12-26T07:28:53.258Z,20.2
2016-12-26T07:29:53.246Z,21.15
2016-12-26T07:30:53.233Z,20.77
2016-12-26T07:31:53.219Z,19.44
2016-12-26T07:32:53.209Z,18.68
2016-12-26T07:33:53.193Z,17.83
2016-12-26T07:34:53.180Z,17.17
2016-12-26T07:35:53.170Z,18.21
2016-12-26T07:36:53.155Z,17.35
2016-12-26T07:37:53.142Z,19.34
2016-12-26T07:38:53.130Z,21.63
2016-12-26T07:39:53.119Z,20.29
2016-12-26T07:40:53.104Z,19.73
2016-12-26T07:41:53.089Z,18.69
2016-12-26T07:42:53.078Z,18.68
2016-12-26T07:43:53.067Z,18.5
2016-12-26T07:44:53.052Z,18.31
2016-12-26T07:45:53.039Z,19.35
2016-12-26T07:46:53.030Z,18.41
2016-12-26T07:47:53.016Z,18.98
2016-12-26T07:48:53.001Z,20.68
2016-12-26T07:49:52.987Z,19.92
2016-12-26T07:50:52.982Z,19.64
2016-12-26T07:51:52.965Z,20.21
2016-12-26T07:52:52.949Z,20.31
2016-12-26T07:53:52.939Z,20.87
2016-12-26T07:54:52.924Z,20.02
2016-12-26T07:55:52.915Z,19.92
2016-12-26T07:56:52.898Z,19.54
2016-12-26T07:57:52.886Z,19.64
2016-12-26T07:58:52.877Z,19.92
2016-12-26T07:59:52.862Z,19.35
2016-12-26T08:00:52.852Z,18.02
2016-12-26T08:01:52.843Z,17.65
2016-12-26T08:02:52.824Z,17.27
2016-12-26T08:03:52.813Z,21.06
2016-12-26T08:04:52.800Z,20.97
2016-12-26T08:05:52.789Z,20.59
2016-12-26T08:06:52.774Z,19.83
2016-12-26T08:07:52.763Z,20.31
2016-12-26T08:08:52.750Z,19.83
2016-12-26T08:09:52.735Z,20.97
2016-12-26T08:10:52.725Z,19.64
2016-12-26T08:11:52.710Z,19.64
2016-12-26T08:12:52.702Z,19.83
2016-12-26T08:13:52.686Z,19.83
2016-12-26T08:14:52.674Z,19.64
2016-12-26T08:15:52.661Z,20.59
2016-12-26T08:16:52.647Z,20.31
2016-12-26T08:17:52.636Z,19.54
2016-12-26T08:18:52.627Z,18.69
2016-12-26T08:19:52.609Z,17.65
2016-12-26T08:20:52.598Z,18.41
2016-12-26T08:21:52.585Z,17.65
2016-12-26T08:22:52.573Z,17.65
2016-12-26T08:23:52.562Z,17.83
2016-12-26T08:24:52.548Z,19.07
2016-12-26T08:25:52.535Z,18.88
2016-12-26T08:26:52.524Z,18.69
2016-12-26T08:27:52.512Z,18.5
2016-12-26T08:28:52.498Z,21.35
2016-12-26T08:29:52.487Z,21.15
2016-12-26T08:30:52.479Z,20.4
2016-12-26T08:31:52.463Z,19.92
2016-12-26T08:32:52.447Z,21.15
2016-12-26T08:33:52.438Z,20.87
2016-12-26T08:34:52.423Z,21.35
2016-12-26T08:35:52.412Z,20.68
2016-12-26T08:36:52.399Z,20.11
2016-12-26T08:37:52.389Z,20.02
2016-12-26T08:38:52.376Z,19.83
2016-12-26T08:39:52.361Z,19.83
2016-12-26T08:40:52.349Z,19.54
2016-12-26T08:41:52.337Z,18.6
2016-12-26T08:42:52.324Z,18.69
2016-12-26T08:43:52.316Z,18.5
2016-12-26T08:44:52.319Z,20.4
2016-12-26T08:45:52.289Z,21.35
2016-12-26T08:46:52.275Z,20.68
2016-12-26T08:47:52.266Z,19.83
2016-12-26T08:48:52.252Z,19.64
2016-12-26T08:49:52.238Z,22.11
2016-12-26T08:50:52.229Z,22.86
2016-12-26T08:51:52.215Z,22.49
2016-12-26T08:52:52.205Z,24.38
2016-12-26T08:53:52.190Z,25.52
2016-12-26T08:54:52.180Z,24.48
2016-12-26T08:55:52.184Z,24.19
2016-12-26T08:56:52.156Z,24.1
2016-12-26T08:57:52.143Z,25.34
2016-12-26T08:58:52.129Z,24.95
2016-12-26T08:59:52.118Z,25.62
2016-12-26T09:00:52.104Z,26.67
2016-12-26T09:01:52.094Z,25.9
2016-12-26T09:02:52.081Z,25.63
2016-12-26T09:03:52.070Z,27.04
2016-12-26T09:04:52.057Z,25.9
2016-12-26T09:05:52.044Z,27.14
2016-12-26T09:06:52.032Z,28.86
2016-12-26T09:07:52.021Z,27.44
2016-12-26T09:08:52.010Z,28.94
2016-12-26T09:09:51.996Z,27.62
2016-12-26T09:10:51.983Z,28.77
2016-12-26T09:11:51.972Z,27.81
2016-12-26T09:12:51.958Z,28.38
2016-12-26T09:13:51.948Z,28.38
2016-12-26T09:14:51.936Z,28.29
2016-12-26T09:15:51.920Z,31.33
2016-12-26T09:16:51.914Z,31.52
2016-12-26T09:17:51.898Z,31.04
2016-12-26T09:18:51.885Z,31.8
2016-12-26T09:19:51.875Z,32.65
2016-12-26T09:20:51.863Z,31.99
2016-12-26T09:21:51.869Z,32.28
2016-12-26T09:22:51.839Z,33.32
2016-12-26T09:23:51.829Z,34.17
2016-12-26T09:24:51.820Z,33.61
2016-12-26T09:25:51.807Z,34.46
2016-12-26T09:26:51.791Z,35.6
2016-12-26T09:27:51.779Z,36.83
2016-12-26T09:28:51.767Z,40.63
2016-12-26T09:29:51.756Z,40.06
2016-12-26T09:30:51.746Z,36.93
2016-12-26T09:31:51.732Z,37.02
2016-12-26T09:32:51.718Z,36.36
2016-12-26T09:33:51.707Z,35.88
2016-12-26T09:34:51.695Z,35.41
2016-12-26T09:35:51.684Z,35.31
2016-12-26T09:36:51.673Z,38.45
2016-12-26T09:37:51.660Z,36.65
2016-12-26T09:38:51.648Z,37.69
2016-12-26T09:39:51.639Z,37.3
2016-12-26T09:40:51.624Z,38.54
2016-12-26T09:41:51.614Z,39.3
2016-12-26T09:42:51.600Z,40.82
2016-12-26T09:43:51.588Z,40.06
2016-12-26T09:44:51.576Z,41.58
2016-12-26T09:45:51.567Z,43.57
2016-12-26T09:46:51.553Z,45.38
2016-12-26T09:47:51.544Z,45.09
2016-12-26T09:48:51.531Z,47.37
2016-12-26T09:49:51.520Z,49.08
2016-12-26T09:50:51.509Z,46.7
2016-12-26T09:51:51.495Z,45.09
2016-12-26T09:52:51.487Z,44.05
2016-12-26T09:53:51.472Z,47.66
2016-12-26T09:54:51.460Z,45.66
2016-12-26T09:55:51.447Z,46.42
2016-12-26T09:56:51.440Z,48.7
2016-12-26T09:57:51.423Z,48.22
2016-12-26T09:58:51.416Z,49.74
2016-12-26T09:59:51.404Z,50.12
2016-12-26T10:00:51.392Z,50.41
2016-12-26T10:01:51.379Z,49.93
2016-12-26T10:02:51.369Z,48.61
2016-12-26T10:03:51.354Z,48.89
2016-12-26T10:04:51.345Z,48.99
2016-12-26T10:05:51.332Z,50.05
2016-12-26T10:06:51.323Z,50.03
2016-12-26T10:07:51.308Z,49.77
2016-12-26T10:08:51.301Z,53.07
2016-12-26T10:09:51.287Z,51.39
2016-12-26T10:10:51.274Z,51.17
2016-12-26T10:11:51.269Z,51.17
2016-12-26T10:12:51.253Z,51.17
2016-12-26T10:13:51.240Z,49.74
2016-12-26T10:14:51.277Z,50.03
2016-12-26T10:15:51.217Z,49.37
2016-12-26T10:16:51.210Z,50.22
2016-12-26T10:17:51.193Z,50.03
2016-12-26T10:18:51.184Z,49.18
2016-12-26T10:19:51.177Z,49.84
2016-12-26T10:20:51.161Z,49.55
2016-12-26T10:21:51.148Z,47.75
2016-12-26T10:22:51.139Z,47.28
2016-12-26T10:23:51.126Z,47.66
2016-12-26T10:24:51.115Z,46.23
2016-12-26T10:25:51.105Z,48.99
2016-12-26T10:26:51.094Z,50.7
2016-12-26T10:27:51.080Z,51.07
2016-12-26T10:28:51.067Z,50.6
2016-12-26T10:29:51.059Z,48.8
2016-12-26T10:30:51.043Z,49.37
2016-12-26T10:31:51.037Z,49.37
2016-12-26T10:32:51.022Z,50.6
2016-12-26T10:33:51.012Z,51.17
2016-12-26T10:34:50.999Z,50.51
2016-12-26T10:35:50.987Z,49.18
2016-12-26T10:36:50.979Z,50.03
2016-12-26T10:37:50.963Z,48.89
2016-12-26T10:38:50.956Z,47.56
2016-12-26T10:39:50.940Z,48.7
2016-12-26T10:40:50.932Z,49.18
2016-12-26T10:41:50.917Z,49.37
2016-12-26T10:42:50.908Z,49.93
2016-12-26T10:43:50.895Z,50.98
2016-12-26T10:44:50.882Z,50.31
2016-12-26T10:45:50.873Z,49.93
2016-12-26T10:46:50.862Z,48.7
2016-12-26T10:47:50.849Z,47.18
2016-12-26T10:48:51.169Z,47.18
2016-12-26T10:49:50.829Z,47.47
2016-12-26T10:50:50.817Z,49.29
2016-12-26T10:51:50.800Z,52.59
2016-12-26T10:52:50.795Z,52.4
2016-12-26T10:53:50.782Z,51.17
2016-12-26T10:54:50.769Z,49.84
2016-12-26T10:55:50.760Z,48.8
2016-12-26T10:56:50.745Z,45
2016-12-26T10:57:50.739Z,44.62
2016-12-26T10:58:50.723Z,43.67
2016-12-26T10:59:50.710Z,43.76
2016-12-26T11:00:50.699Z,44.71
2016-12-26T11:01:50.688Z,44.43
2016-12-26T11:02:50.676Z,43.1
2016-12-26T11:03:50.667Z,42.05
2016-12-26T11:04:50.653Z,41.3
2016-12-26T11:05:50.642Z,40.63
2016-12-26T11:06:50.629Z,39.3
2016-12-26T11:07:50.618Z,41.11
2016-12-26T11:08:50.607Z,40.82
2016-12-26T11:09:50.599Z,37.59
2016-12-26T11:10:50.588Z,36.36
2016-12-26T11:11:50.571Z,35.13
2016-12-26T11:12:50.560Z,33.51
2016-12-26T11:13:50.550Z,33.7
2016-12-26T11:14:50.543Z,34.65
2016-12-26T11:15:50.529Z,33.8
2016-12-26T11:16:50.515Z,32.65
2016-12-26T11:17:50.509Z,32.09
2016-12-26T11:18:50.490Z,31.04
2016-12-26T11:19:50.478Z,30.09
2016-12-26T11:20:50.471Z,30.28
2016-12-26T11:21:50.457Z,31.61
2016-12-26T11:22:50.446Z,29.9
2016-12-26T11:23:50.435Z,28.48
2016-12-26T11:24:50.423Z,26.67
2016-12-26T11:25:50.725Z,26.2
2016-12-26T11:26:50.403Z,26.01
2016-12-26T11:27:50.389Z,25.63
2016-12-26T11:28:50.382Z,24.87
2016-12-26T11:29:50.364Z,25.25
2016-12-26T11:30:50.352Z,27.34
2016-12-26T11:31:50.342Z,25.54
2016-12-26T11:32:50.331Z,26.67
2016-12-26T11:33:50.320Z,24.96
2016-12-26T11:34:50.312Z,23.45
2016-12-26T11:35:50.296Z,23.25
2016-12-26T11:36:50.288Z,23.16
2016-12-26T11:37:50.272Z,23.92
2016-12-26T11:38:50.261Z,23.07
2016-12-26T11:39:50.262Z,23.25
2016-12-26T11:40:50.557Z,23.65
2016-12-26T11:41:50.227Z,22.89
2016-12-26T11:42:50.222Z,26.03
2016-12-26T11:43:50.203Z,27.53
2016-12-26T11:44:50.192Z,29.33
2016-12-26T11:45:50.179Z,28.67
2016-12-26T11:46:50.168Z,28
2016-12-26T11:47:50.158Z,27.34
2016-12-26T11:48:50.149Z,27.34
2016-12-26T11:49:50.134Z,27.72
2016-12-26T11:50:50.125Z,25.25
2016-12-26T11:51:50.115Z,23.83
2016-12-26T11:52:50.100Z,24.11
2016-12-26T11:53:50.089Z,28.67
2016-12-26T11:54:50.076Z,28.86
2016-12-26T11:55:50.068Z,29.14
2016-12-26T11:56:50.052Z,30
2016-12-26T11:57:50.041Z,30.85
2016-12-26T11:58:50.032Z,31.23
2016-12-26T11:59:50.021Z,28.67
2016-12-26T12:00:50.007Z,29.05
2016-12-26T12:01:49.996Z,28.29
2016-12-26T12:02:49.984Z,27.44
2016-12-26T12:03:49.976Z,28.38
2016-12-26T12:04:49.960Z,27.72
2016-12-26T12:05:49.952Z,26.77
2016-12-26T12:06:49.939Z,26.58
2016-12-26T12:07:49.927Z,26.96
2016-12-26T12:08:49.916Z,25.73
2016-12-26T12:09:49.903Z,25.63
2016-12-26T12:10:49.892Z,25.44
2016-12-26T12:11:49.882Z,27.81
2016-12-26T12:12:49.868Z,29.05
2016-12-26T12:13:49.858Z,28.48
2016-12-26T12:14:49.845Z,30
2016-12-26T12:15:49.832Z,29.43
2016-12-26T12:16:49.819Z,28.38
2016-12-26T12:17:49.808Z,27.72
2016-12-26T12:18:49.804Z,27.72
2016-12-26T12:19:49.789Z,27.72
2016-12-26T12:20:49.777Z,30.09
2016-12-26T12:21:49.765Z,33.32
2016-12-26T12:22:49.753Z,33.42
2016-12-26T12:23:49.740Z,32.37
2016-12-26T12:24:49.728Z,32.09
2016-12-26T12:25:49.715Z,31.99
2016-12-26T12:26:49.708Z,31.04
2016-12-26T12:27:49.694Z,32.56
2016-12-26T12:28:49.681Z,32.56
2016-12-26T12:29:49.668Z,34.36
2016-12-26T12:30:49.660Z,33.8
2016-12-26T12:31:49.664Z,35.79
2016-12-26T12:32:49.636Z,35.13
2016-12-26T12:33:49.623Z,33.8
2016-12-26T12:34:49.614Z,32.84
2016-12-26T12:35:49.598Z,31.99
2016-12-26T12:36:49.589Z,31.13
2016-12-26T12:37:49.580Z,31.61
2016-12-26T12:38:49.567Z,30.19
2016-12-26T12:39:49.556Z,29.9
2016-12-26T12:40:49.541Z,30
2016-12-26T12:41:49.530Z,33.42
2016-12-26T12:42:49.517Z,35.31
2016-12-26T12:43:49.507Z,35.22
2016-12-26T12:44:49.497Z,34.36
2016-12-26T12:45:49.484Z,33.42
2016-12-26T12:46:49.473Z,32.84
2016-12-26T12:47:49.461Z,32.94
2016-12-26T12:48:49.447Z,34.36
2016-12-26T12:49:49.437Z,33.89
2016-12-26T12:50:49.426Z,33.89
2016-12-26T12:51:49.413Z,33.42
2016-12-26T12:52:49.429Z,32.94
2016-12-26T12:53:49.392Z,34.36
2016-12-26T12:54:49.378Z,33.51
2016-12-26T12:55:49.368Z,32.18
2016-12-26T12:56:49.356Z,32.37
2016-12-26T12:57:49.346Z,34.27
2016-12-26T12:58:49.336Z,34.17
2016-12-26T12:59:49.321Z,32.46
2016-12-26T13:00:49.310Z,33.13
2016-12-26T13:01:49.299Z,33.13
2016-12-26T13:02:49.287Z,33.13
2016-12-26T13:03:49.274Z,35.69
2016-12-26T13:04:49.265Z,34.17
2016-12-26T13:05:49.253Z,34.75
2016-12-26T13:06:49.240Z,36.09
2016-12-26T13:07:49.227Z,35.88
2016-12-26T13:08:49.220Z,34.38
2016-12-26T13:09:49.205Z,35.69
2016-12-26T13:10:49.197Z,34.17
2016-12-26T13:11:49.181Z,34.48
2016-12-26T13:12:49.171Z,36.65
2016-12-26T13:13:49.157Z,35.61
2016-12-26T13:14:49.150Z,36
2016-12-26T13:15:49.137Z,35.61
2016-12-26T13:16:49.125Z,35.5
2016-12-26T13:17:49.114Z,37.04